Time;durP1;ratioP1;P1;durP2;ratioP2;P2;SDS_P1;SDS_P2;PMS_P1;PMS_P2;Temp;Humidity;BMP_temperature;BMP_pressure;BME280_temperature;BME280_humidity;BME280_pressure;Samples;Min_cycle;Max_cycle;Signal;HPM_P1;HPM_P2
2022/09/18 00:01:10;;;;;;;6.95;0.65;;;9.90;95.70;;;;;;5080611;28;20050;-72
2022/09/18 00:03:38;;;;;;;8.02;1.20;;;10.00;95.20;;;;;;5067322;28;20044;-72
2022/09/18 00:06:16;;;;;;;14.90;1.33;;;10.10;94.20;;;;;;5071191;28;20045;-72
2022/09/18 00:08:44;;;;;;;8.43;0.95;;;10.10;93.80;;;;;;5068680;28;20048;-72
2022/09/18 00:11:13;;;;;;;7.57;0.50;;;10.20;92.30;;;;;;5067328;28;20032;-73
2022/09/18 00:13:40;;;;;;;15.50;2.72;;;10.20;91.40;;;;;;5079297;28;20074;-72
2022/09/18 00:16:08;;;;;;;9.88;0.60;;;10.30;91.00;;;;;;5069671;28;20551;-72
2022/09/18 00:18:34;;;;;;;8.57;0.63;;;10.30;90.80;;;;;;5094950;28;20051;-72
2022/09/18 00:21:05;;;;;;;6.07;0.87;;;10.30;90.60;;;;;;5055721;28;20082;-72
2022/09/18 00:23:31;;;;;;;6.85;0.85;;;10.20;90.50;;;;;;5092387;28;20508;-72
2022/09/18 00:25:57;;;;;;;7.77;1.30;;;10.20;90.20;;;;;;5036616;28;20071;-72
2022/09/18 00:28:23;;;;;;;5.43;0.40;;;10.20;89.50;;;;;;5082410;28;20289;-72
2022/09/18 00:30:48;;;;;;;8.20;0.80;;;10.20;90.00;;;;;;5068577;28;20082;-72
2022/09/18 00:33:14;;;;;;;10.10;0.80;;;10.20;90.20;;;;;;5066533;28;20107;-72
2022/09/18 00:35:44;;;;;;;7.10;1.07;;;10.30;90.30;;;;;;5085806;28;20074;-72
2022/09/18 00:38:10;;;;;;;8.88;0.60;;;10.30;90.50;;;;;;5068411;28;20374;-73
2022/09/18 00:40:37;;;;;;;6.53;0.77;;;10.30;90.80;;;;;;5082324;28;20050;-73
2022/09/18 00:43:20;;;;;;;4.45;1.00;;;10.30;90.80;;;;;;5089802;28;20040;-73
2022/09/18 00:46:00;;;;;;;9.50;0.88;;;10.40;91.30;;;;;;5066294;28;20040;-73
2022/09/18 00:48:33;;;;;;;7.72;0.65;;;10.40;91.30;;;;;;5087353;28;20055;-73
2022/09/18 00:51:00;;;;;;;12.40;1.10;;;10.40;91.60;;;;;;5084767;28;20514;-73
2022/09/18 00:53:26;;;;;;;5.40;0.50;;;10.50;91.60;;;;;;5084696;28;20036;-72
2022/09/18 00:55:52;;;;;;;10.82;0.70;;;10.50;91.50;;;;;;5069875;28;20570;-72
2022/09/18 00:58:18;;;;;;;8.67;1.30;;;10.50;91.50;;;;;;5084194;28;20044;-72
2022/09/18 01:00:44;;;;;;;11.43;1.20;;;10.60;91.50;;;;;;5084315;28;20043;-72
2022/09/18 01:03:10;;;;;;;8.90;0.70;;;10.60;91.50;;;;;;5066686;28;20299;-72
2022/09/18 01:06:19;;;;;;;6.97;1.30;;;10.60;90.80;;;;;;5047086;28;20068;-72
2022/09/18 01:09:03;;;;;;;5.68;0.60;;;10.60;91.20;;;;;;5067617;28;20115;-72
2022/09/18 01:12:21;;;;;;;4.55;1.13;;;10.60;90.60;;;;;;5084404;28;20047;-73
2022/09/18 01:15:15;;;;;;;2.33;0.40;;;10.60;90.70;;;;;;5022033;28;20029;-72
2022/09/18 01:18:05;;;;;;;9.87;0.93;;;10.60;90.80;;;;;;5087866;28;20388;-72
2022/09/18 01:20:53;;;;;;;6.20;1.38;;;10.50;91.20;;;;;;5069126;28;20282;-72
2022/09/18 01:23:46;;;;;;;6.03;0.50;;;10.50;91.20;;;;;;5084248;28;20146;-72
2022/09/18 01:26:31;;;;;;;5.25;0.50;;;10.50;91.00;;;;;;5066422;28;20075;-74
2022/09/18 01:29:05;;;;;;;5.90;0.60;;;10.40;90.40;;;;;;5086797;28;20040;-73
2022/09/18 01:31:49;;;;;;;5.05;0.70;;;10.40;90.90;;;;;;5093814;28;20036;-72
2022/09/18 01:34:18;;;;;;;6.55;0.38;;;10.30;91.10;;;;;;5067105;28;20058;-72
2022/09/18 01:36:50;;;;;;;6.68;0.40;;;10.30;91.00;;;;;;5084604;28;20141;-72
2022/09/18 01:39:27;;;;;;;6.05;0.80;;;10.30;91.50;;;;;;5082796;28;20039;-73
2022/09/18 01:41:55;;;;;;;8.52;1.15;;;10.20;91.80;;;;;;5086151;28;20388;-72
2022/09/18 01:44:25;;;;;;;6.53;1.45;;;10.20;91.80;;;;;;5087985;28;20083;-72
2022/09/18 01:46:55;;;;;;;5.63;0.70;;;10.20;92.00;;;;;;5099387;28;20480;-72
2022/09/18 01:49:31;;;;;;;6.45;0.45;;;10.20;92.00;;;;;;5097151;28;20047;-72
2022/09/18 01:52:05;;;;;;;8.23;1.40;;;10.20;92.40;;;;;;5088037;28;20119;-72
2022/09/18 01:54:36;;;;;;;4.18;0.70;;;10.20;92.50;;;;;;5087771;28;20063;-72
2022/09/18 01:57:36;;;;;;;6.15;0.45;;;10.20;92.80;;;;;;5075313;28;20036;-72
2022/09/18 02:00:07;;;;;;;5.07;0.60;;;10.20;93.00;;;;;;5071786;28;20040;-72
2022/09/18 02:02:47;;;;;;;8.23;0.73;;;10.10;93.20;;;;;;5087974;28;20119;-72
2022/09/18 02:05:19;;;;;;;12.85;1.15;;;10.10;93.70;;;;;;5086994;28;20123;-72
2022/09/18 02:07:57;;;;;;;6.45;0.60;;;10.20;93.70;;;;;;5070506;28;20456;-72
2022/09/18 02:10:25;;;;;;;8.63;0.82;;;10.20;93.90;;;;;;5088097;28;20067;-72
2022/09/18 02:12:53;;;;;;;8.73;0.95;;;10.30;94.00;;;;;;5070924;28;20040;-72
2022/09/18 02:15:21;;;;;;;13.00;1.00;;;10.30;94.30;;;;;;5087654;28;20051;-72
2022/09/18 02:17:59;;;;;;;6.78;0.68;;;10.30;94.60;;;;;;5087670;28;20067;-72
2022/09/18 02:20:30;;;;;;;7.82;0.80;;;10.30;94.60;;;;;;5088097;28;20052;-72
2022/09/18 02:23:01;;;;;;;10.25;0.75;;;10.30;94.70;;;;;;5073329;28;20059;-72
2022/09/18 02:25:31;;;;;;;6.68;0.98;;;10.30;94.70;;;;;;5071598;28;20044;-72
2022/09/18 02:27:57;;;;;;;10.52;0.82;;;10.30;94.80;;;;;;5086813;28;20082;-72
2022/09/18 02:30:24;;;;;;;10.07;1.02;;;10.30;94.90;;;;;;5070478;28;20036;-72
2022/09/18 02:32:55;;;;;;;10.02;2.45;;;10.30;95.00;;;;;;5087384;28;20036;-72
2022/09/18 02:35:24;;;;;;;7.45;0.85;;;10.30;95.10;;;;;;5062839;28;20072;-72
2022/09/18 02:38:02;;;;;;;8.13;0.80;;;10.30;95.00;;;;;;5086526;28;20056;-72
2022/09/18 02:40:37;;;;;;;10.38;2.03;;;10.30;95.20;;;;;;5076037;28;20070;-72
2022/09/18 02:43:11;;;;;;;8.00;1.00;;;10.30;95.00;;;;;;5070674;28;20038;-72
2022/09/18 02:45:56;;;;;;;7.00;0.77;;;10.30;95.10;;;;;;5069572;28;20055;-72
2022/09/18 02:48:48;;;;;;;9.43;1.95;;;10.30;95.30;;;;;;5085901;28;20374;-72
2022/09/18 02:51:35;;;;;;;5.15;0.88;;;10.30;95.20;;;;;;5086661;28;20124;-72
2022/09/18 02:54:06;;;;;;;8.30;1.17;;;10.30;95.10;;;;;;5086879;28;20052;-72
2022/09/18 02:56:54;;;;;;;8.35;0.70;;;10.30;95.10;;;;;;5073997;28;20075;-72
2022/09/18 02:59:36;;;;;;;5.85;0.80;;;10.40;95.50;;;;;;5081662;28;20040;-72
2022/09/18 03:02:02;;;;;;;5.53;0.63;;;10.30;95.60;;;;;;5063738;28;20044;-72
2022/09/18 03:04:28;;;;;;;5.90;0.52;;;10.30;95.00;;;;;;5066870;28;20066;-72
2022/09/18 03:06:54;;;;;;;6.45;0.40;;;10.30;94.90;;;;;;5070010;28;20097;-72
2022/09/18 03:09:20;;;;;;;8.70;0.73;;;10.30;95.00;;;;;;5074113;28;20496;-72
2022/09/18 03:11:48;;;;;;;6.75;0.70;;;10.30;95.10;;;;;;5093964;28;20281;-72
2022/09/18 03:14:14;;;;;;;6.20;0.57;;;10.30;94.90;;;;;;5085380;28;20408;-72
2022/09/18 03:16:40;;;;;;;8.37;0.77;;;10.20;95.00;;;;;;5051421;28;20044;-72
2022/09/18 03:19:05;;;;;;;4.80;0.60;;;10.20;95.00;;;;;;5085428;28;20040;-72
2022/09/18 03:21:31;;;;;;;7.00;0.40;;;10.20;95.20;;;;;;5068718;28;20032;-72
2022/09/18 03:23:57;;;;;;;5.20;0.90;;;10.20;95.30;;;;;;5054464;28;20047;-72
2022/09/18 03:26:22;;;;;;;7.50;0.70;;;10.20;95.40;;;;;;5068791;28;20044;-72
2022/09/18 03:28:48;;;;;;;5.33;0.70;;;10.20;95.60;;;;;;5069141;28;20032;-72
2022/09/18 03:31:14;;;;;;;3.93;0.40;;;10.20;95.70;;;;;;5085461;28;20040;-72
2022/09/18 03:33:39;;;;;;;5.67;0.50;;;10.20;95.90;;;;;;5086341;28;20942;-72
2022/09/18 03:36:07;;;;;;;5.27;0.50;;;10.20;95.80;;;;;;5085076;28;20415;-72
2022/09/18 03:38:33;;;;;;;4.32;0.47;;;10.20;95.90;;;;;;5085786;28;20157;-72
2022/09/18 03:40:59;;;;;;;5.40;0.60;;;10.20;95.90;;;;;;5045185;28;20040;-72
2022/09/18 03:43:26;;;;;;;3.40;0.63;;;10.20;96.10;;;;;;5081642;28;20039;-72
2022/09/18 03:45:52;;;;;;;7.90;0.65;;;10.20;96.10;;;;;;5086389;28;20043;-72
2022/09/18 03:48:19;;;;;;;3.58;0.52;;;10.20;96.30;;;;;;5053225;28;20075;-72
2022/09/18 03:50:47;;;;;;;5.88;0.80;;;10.30;96.50;;;;;;5081477;28;20586;-72
2022/09/18 03:53:13;;;;;;;4.68;0.47;;;10.20;96.40;;;;;;5069792;28;20039;-72
2022/09/18 03:55:39;;;;;;;3.53;0.40;;;10.20;96.60;;;;;;5060329;28;20055;-72
2022/09/18 03:58:04;;;;;;;5.23;0.30;;;10.30;96.40;;;;;;5087360;28;20048;-72
2022/09/18 04:00:30;;;;;;;3.90;0.30;;;10.30;96.00;;;;;;5067191;28;20071;-72
2022/09/18 04:02:56;;;;;;;3.33;0.50;;;10.30;95.90;;;;;;5069306;28;20043;-72
2022/09/18 04:05:21;;;;;;;3.37;0.20;;;10.30;95.20;;;;;;5085307;28;20302;-72
2022/09/18 04:07:47;;;;;;;6.27;0.33;;;10.30;94.70;;;;;;5087058;28;20036;-72
2022/09/18 04:10:13;;;;;;;8.80;0.40;;;10.30;95.00;;;;;;5086558;28;20098;-72
2022/09/18 04:12:39;;;;;;;4.03;0.40;;;10.40;95.10;;;;;;5068635;28;20060;-72
2022/09/18 04:15:05;;;;;;;5.32;0.73;;;10.40;94.80;;;;;;5085483;28;20052;-72
2022/09/18 04:17:31;;;;;;;5.18;0.45;;;10.40;94.80;;;;;;5069126;28;20475;-72
2022/09/18 04:19:56;;;;;;;7.20;0.43;;;10.40;94.70;;;;;;5044806;28;20105;-72
2022/09/18 04:22:22;;;;;;;4.97;0.40;;;10.30;94.80;;;;;;5081551;28;20452;-72
2022/09/18 04:24:49;;;;;;;8.37;0.40;;;10.30;94.90;;;;;;5068095;28;20051;-72
2022/09/18 04:27:15;;;;;;;4.95;0.35;;;10.20;95.20;;;;;;5084856;28;20070;-72
2022/09/18 04:29:41;;;;;;;6.05;0.43;;;10.20;95.30;;;;;;5087249;28;20511;-72
2022/09/18 04:32:07;;;;;;;4.60;0.70;;;10.10;95.50;;;;;;5070373;28;20044;-72
2022/09/18 04:34:32;;;;;;;7.60;0.73;;;10.10;95.80;;;;;;5053902;28;20070;-72
2022/09/18 04:36:58;;;;;;;5.17;0.40;;;10.10;96.10;;;;;;5084441;28;20354;-72
2022/09/18 04:39:24;;;;;;;6.83;1.17;;;10.00;96.30;;;;;;5067714;28;20071;-72
2022/09/18 04:41:50;;;;;;;8.57;1.03;;;10.00;96.50;;;;;;5084806;28;20057;-72
2022/09/18 04:44:16;;;;;;;3.22;0.30;;;10.00;96.60;;;;;;5067661;28;20048;-72
2022/09/18 04:46:41;;;;;;;8.73;0.57;;;9.90;96.80;;;;;;5084557;28;20050;-72
2022/09/18 04:49:07;;;;;;;3.73;0.40;;;9.90;96.90;;;;;;5067905;28;20562;-72
2022/09/18 04:51:33;;;;;;;6.07;0.50;;;9.90;97.10;;;;;;5084499;28;20364;-72
2022/09/18 04:53:59;;;;;;;5.70;0.70;;;10.00;97.20;;;;;;5068738;28;20072;-72
2022/09/18 04:56:25;;;;;;;9.97;0.87;;;10.00;97.40;;;;;;5090085;28;20040;-72
2022/09/18 04:58:51;;;;;;;2.23;0.30;;;10.00;97.50;;;;;;5063983;28;20040;-72
2022/09/18 05:01:17;;;;;;;5.30;0.40;;;10.00;97.60;;;;;;5064062;28;20071;-72
2022/09/18 05:03:42;;;;;;;3.83;0.60;;;10.10;97.20;;;;;;5059276;28;20082;-72
2022/09/18 05:06:08;;;;;;;2.60;0.30;;;10.10;96.60;;;;;;5083306;28;20042;-72
2022/09/18 05:08:34;;;;;;;4.63;0.50;;;10.20;96.10;;;;;;5049619;28;20043;-72
2022/09/18 05:11:01;;;;;;;3.90;0.60;;;10.20;95.80;;;;;;5067299;28;20484;-72
2022/09/18 05:13:26;;;;;;;4.93;0.35;;;10.30;95.60;;;;;;5084398;28;20036;-72
2022/09/18 05:15:56;;;;;;;3.07;0.60;;;10.30;94.90;;;;;;5050371;28;20525;-72
2022/09/18 05:18:22;;;;;;;5.25;0.40;;;10.30;94.20;;;;;;5084880;28;20055;-72
2022/09/18 05:20:48;;;;;;;3.58;0.40;;;10.40;94.30;;;;;;5084395;28;20539;-72
2022/09/18 05:23:14;;;;;;;2.08;0.40;;;10.40;94.30;;;;;;5084428;28;20062;-72
2022/09/18 05:25:41;;;;;;;6.82;1.25;;;10.40;94.00;;;;;;5066955;28;20146;-72
2022/09/18 05:28:09;;;;;;;5.40;0.50;;;10.40;94.00;;;;;;5067724;28;20079;-72
2022/09/18 05:30:35;;;;;;;5.40;0.52;;;10.40;94.40;;;;;;5083556;28;20059;-72
2022/09/18 05:33:03;;;;;;;7.67;0.80;;;10.40;94.20;;;;;;5084469;28;20032;-72
2022/09/18 05:35:34;;;;;;;2.85;0.43;;;10.40;94.30;;;;;;5083262;28;20460;-72
2022/09/18 05:38:00;;;;;;;4.68;0.43;;;10.40;94.60;;;;;;5094164;28;20488;-72
2022/09/18 05:40:30;;;;;;;6.80;0.60;;;10.30;94.70;;;;;;5069706;28;20040;-72
2022/09/18 05:42:56;;;;;;;4.85;0.70;;;10.30;94.70;;;;;;5084902;28;20059;-72
2022/09/18 05:45:22;;;;;;;4.77;0.40;;;10.30;95.00;;;;;;5081509;28;20041;-72
2022/09/18 05:47:55;;;;;;;4.97;0.50;;;10.30;95.20;;;;;;5072553;28;20036;-72
2022/09/18 05:50:22;;;;;;;6.32;0.63;;;10.30;95.40;;;;;;5082599;28;20131;-72
2022/09/18 05:53:02;;;;;;;8.35;0.40;;;10.30;95.30;;;;;;5076466;28;20043;-72
2022/09/18 05:55:29;;;;;;;7.40;0.47;;;10.30;95.50;;;;;;5083740;28;20044;-72
2022/09/18 05:57:56;;;;;;;6.70;0.68;;;10.30;95.80;;;;;;5083266;28;20044;-72
2022/09/18 06:00:23;;;;;;;9.75;0.95;;;10.30;95.70;;;;;;5064022;28;20172;-72
2022/09/18 06:02:57;;;;;;;7.07;0.50;;;10.30;95.50;;;;;;5074314;28;20078;-72
2022/09/18 06:05:23;;;;;;;3.47;0.55;;;10.30;95.40;;;;;;5083606;28;20087;-72
2022/09/18 06:07:50;;;;;;;5.15;0.75;;;10.30;95.10;;;;;;5083289;28;20150;-72
2022/09/18 06:10:18;;;;;;;6.00;0.60;;;10.30;95.10;;;;;;5083898;28;20040;-72
2022/09/18 06:12:43;;;;;;;9.88;0.80;;;10.40;95.40;;;;;;5085551;28;20271;-72
2022/09/18 06:15:10;;;;;;;4.30;0.80;;;10.40;95.30;;;;;;5069531;28;20392;-72
2022/09/18 06:17:36;;;;;;;6.18;0.50;;;10.40;95.50;;;;;;5083009;28;20055;-72
2022/09/18 06:20:04;;;;;;;7.63;0.70;;;10.40;95.60;;;;;;5084388;28;20036;-72
2022/09/18 06:22:31;;;;;;;8.32;0.70;;;10.30;95.70;;;;;;5065987;28;20158;-72
2022/09/18 06:24:57;;;;;;;6.35;0.60;;;10.30;95.70;;;;;;5072336;28;20119;-72
2022/09/18 06:27:23;;;;;;;9.23;0.60;;;10.40;95.80;;;;;;5070880;28;20181;-72
2022/09/18 06:29:49;;;;;;;7.07;0.50;;;10.40;95.90;;;;;;5070288;28;20043;-72
2022/09/18 06:32:14;;;;;;;4.37;0.50;;;10.40;95.80;;;;;;5087698;28;20645;-71
2022/09/18 06:34:40;;;;;;;6.00;0.80;;;10.40;95.80;;;;;;5087469;28;20369;-71
2022/09/18 06:37:09;;;;;;;8.70;0.47;;;10.40;95.70;;;;;;5069338;28;20125;-71
2022/09/18 06:39:34;;;;;;;3.20;0.40;;;10.40;95.60;;;;;;5070018;28;20772;-72
2022/09/18 06:42:00;;;;;;;3.07;0.57;;;10.40;95.70;;;;;;5087516;28;20052;-71
2022/09/18 06:44:26;;;;;;;11.70;0.83;;;10.40;95.80;;;;;;5087133;28;20039;-72
2022/09/18 06:46:52;;;;;;;4.40;0.53;;;10.40;94.80;;;;;;5069461;28;20070;-72
2022/09/18 06:49:17;;;;;;;3.10;0.30;;;10.40;94.30;;;;;;5086078;28;20119;-71
2022/09/18 06:51:44;;;;;;;2.80;0.40;;;10.40;94.30;;;;;;5070881;28;21177;-71
2022/09/18 06:54:12;;;;;;;4.05;0.50;;;10.30;94.00;;;;;;5068219;28;20112;-71
2022/09/18 06:56:38;;;;;;;2.60;0.32;;;10.20;93.80;;;;;;5068702;28;20044;-71
2022/09/18 06:59:03;;;;;;;5.27;0.40;;;10.20;93.50;;;;;;5054432;28;20035;-71
2022/09/18 07:01:29;;;;;;;4.70;0.47;;;10.10;93.70;;;;;;5071936;28;20309;-71
2022/09/18 07:03:55;;;;;;;3.80;0.63;;;10.10;94.10;;;;;;5090088;28;20483;-71
2022/09/18 07:06:21;;;;;;;4.10;0.20;;;10.10;94.40;;;;;;5085429;28;20046;-71
2022/09/18 07:08:47;;;;;;;1.80;0.23;;;10.00;94.40;;;;;;5071538;28;20047;-71
2022/09/18 07:11:13;;;;;;;2.67;0.30;;;10.00;94.80;;;;;;5077879;28;20352;-71
2022/09/18 07:13:39;;;;;;;2.90;0.70;;;10.00;94.90;;;;;;5051633;28;20070;-71
2022/09/18 07:16:04;;;;;;;3.80;0.90;;;9.90;95.30;;;;;;5069685;28;20318;-71
2022/09/18 07:18:30;;;;;;;4.47;0.73;;;9.90;95.40;;;;;;5083431;28;20542;-72
2022/09/18 07:20:59;;;;;;;3.70;0.40;;;9.90;95.70;;;;;;5052674;28;20074;-71
2022/09/18 07:23:28;;;;;;;3.80;0.50;;;9.90;96.00;;;;;;5068099;28;20066;-71
2022/09/18 07:25:54;;;;;;;4.80;0.35;;;9.90;96.40;;;;;;5087196;28;20151;-72
2022/09/18 07:28:20;;;;;;;8.32;0.95;;;10.00;96.70;;;;;;5097326;28;20089;-71
2022/09/18 07:30:46;;;;;;;5.43;0.65;;;10.00;96.90;;;;;;5088318;28;20047;-71
2022/09/18 07:33:12;;;;;;;3.47;0.67;;;10.00;97.00;;;;;;5070835;28;20037;-72
2022/09/18 07:35:38;;;;;;;5.23;0.53;;;10.00;97.30;;;;;;5066666;28;20154;-71
2022/09/18 07:38:05;;;;;;;3.73;0.60;;;10.00;97.30;;;;;;5069366;28;20043;-71
2022/09/18 07:40:31;;;;;;;6.35;0.77;;;10.00;97.40;;;;;;5069145;28;20130;-72
2022/09/18 07:43:06;;;;;;;6.93;0.50;;;10.00;97.80;;;;;;5085510;28;20055;-72
2022/09/18 07:45:32;;;;;;;7.10;0.60;;;10.10;98.10;;;;;;5086167;28;20032;-71
2022/09/18 07:48:05;;;;;;;9.32;0.73;;;10.20;98.20;;;;;;5086128;28;20066;-72
2022/09/18 07:50:32;;;;;;;8.00;0.60;;;10.20;98.30;;;;;;5086230;28;20036;-71
2022/09/18 07:53:01;;;;;;;5.90;0.60;;;10.30;98.30;;;;;;5069609;28;20032;-71
2022/09/18 07:55:27;;;;;;;7.53;0.50;;;10.30;98.40;;;;;;5085160;28;20043;-71
2022/09/18 07:57:56;;;;;;;6.83;0.60;;;10.40;98.50;;;;;;5085632;28;20047;-72
2022/09/18 08:00:22;;;;;;;7.25;0.63;;;10.50;98.70;;;;;;5082962;28;20294;-72
2022/09/18 08:02:48;;;;;;;4.70;0.57;;;10.50;98.50;;;;;;5052878;28;20074;-72
2022/09/18 08:05:14;;;;;;;5.30;0.40;;;10.50;98.40;;;;;;5067669;28;20881;-72
2022/09/18 08:07:40;;;;;;;8.40;1.00;;;10.60;98.10;;;;;;5068941;28;20051;-72
2022/09/18 08:10:06;;;;;;;2.67;0.40;;;10.60;98.20;;;;;;5077956;28;20036;-72
2022/09/18 08:12:32;;;;;;;6.00;0.32;;;10.60;98.00;;;;;;5068862;28;20127;-72
2022/09/18 08:14:58;;;;;;;6.43;1.00;;;10.70;98.10;;;;;;5086455;28;20123;-71
2022/09/18 08:17:24;;;;;;;4.90;0.80;;;10.70;97.90;;;;;;5052480;28;20032;-71
2022/09/18 08:19:50;;;;;;;4.93;0.50;;;10.70;97.90;;;;;;5085155;28;20301;-71
2022/09/18 08:22:16;;;;;;;6.77;0.80;;;10.70;97.90;;;;;;5069029;28;20294;-71
2022/09/18 08:24:42;;;;;;;6.60;0.60;;;10.70;97.70;;;;;;5085359;28;20043;-72
2022/09/18 08:27:07;;;;;;;6.23;0.60;;;10.80;97.80;;;;;;5089814;28;20047;-72
2022/09/18 08:29:33;;;;;;;6.10;0.47;;;10.80;98.00;;;;;;5085977;28;20052;-72
2022/09/18 08:31:59;;;;;;;6.53;0.50;;;10.90;98.40;;;;;;5068743;28;20040;-72
2022/09/18 08:34:26;;;;;;;4.33;0.80;;;10.90;98.00;;;;;;5084875;28;20177;-72
2022/09/18 08:36:51;;;;;;;9.87;0.70;;;11.00;98.10;;;;;;5066716;28;20040;-72
2022/09/18 08:39:17;;;;;;;4.03;0.77;;;11.00;98.30;;;;;;5068803;28;20666;-72
2022/09/18 08:41:45;;;;;;;4.83;1.00;;;11.00;97.70;;;;;;5086069;28;20072;-72
2022/09/18 08:44:23;;;;;;;11.03;0.70;;;11.00;97.50;;;;;;5069205;28;20050;-72
2022/09/18 08:47:00;;;;;;;7.30;1.07;;;11.10;97.70;;;;;;5067279;28;20332;-72
2022/09/18 08:49:29;;;;;;;6.57;0.50;;;11.10;97.70;;;;;;5086057;28;20282;-72
2022/09/18 08:52:15;;;;;;;4.40;0.40;;;11.10;97.40;;;;;;5085607;28;20282;-72
2022/09/18 08:54:54;;;;;;;5.73;0.43;;;11.20;97.30;;;;;;5075703;28;20783;-72
2022/09/18 08:57:25;;;;;;;5.10;0.60;;;11.20;97.50;;;;;;5075368;28;20274;-72
2022/09/18 08:59:58;;;;;;;11.83;0.90;;;11.30;97.60;;;;;;5071779;28;20285;-72
2022/09/18 09:02:53;;;;;;;2.60;0.40;;;11.40;97.90;;;;;;5086921;28;20343;-71
2022/09/18 09:05:25;;;;;;;5.75;0.50;;;11.50;97.90;;;;;;5085727;28;20310;-71
2022/09/18 09:08:16;;;;;;;4.73;0.57;;;11.50;97.20;;;;;;5085392;28;20094;-71
2022/09/18 09:11:08;;;;;;;4.87;0.40;;;11.50;96.00;;;;;;5088085;28;20274;-71
2022/09/18 09:13:49;;;;;;;3.07;0.47;;;11.60;96.00;;;;;;5067852;28;20679;-71
2022/09/18 09:16:25;;;;;;;3.97;0.40;;;11.70;96.40;;;;;;5081678;28;20290;-72
2022/09/18 09:19:05;;;;;;;4.67;0.37;;;11.70;96.20;;;;;;5101651;28;20289;-71
2022/09/18 09:21:37;;;;;;;6.23;0.50;;;11.70;96.10;;;;;;5085188;28;20293;-71
2022/09/18 09:24:28;;;;;;;3.63;0.40;;;11.70;95.70;;;;;;5063871;28;20292;-72
2022/09/18 09:26:55;;;;;;;7.57;0.60;;;11.60;95.70;;;;;;5088729;28;20313;-71
2022/09/18 09:29:30;;;;;;;5.90;0.60;;;11.60;94.90;;;;;;5085152;28;20286;-71
2022/09/18 09:32:07;;;;;;;6.03;0.60;;;11.50;93.40;;;;;;5068329;28;20691;-71
2022/09/18 09:34:43;;;;;;;7.70;0.90;;;11.40;91.70;;;;;;5088864;28;20040;-72
2022/09/18 09:37:16;;;;;;;4.97;0.70;;;11.20;92.00;;;;;;5083896;28;20286;-72
2022/09/18 09:39:52;;;;;;;2.40;0.23;;;11.20;93.40;;;;;;5059439;28;20278;-72
2022/09/18 09:42:33;;;;;;;3.60;0.50;;;11.10;94.20;;;;;;5087222;28;20304;-70
2022/09/18 09:45:16;;;;;;;7.27;0.70;;;11.10;93.80;;;;;;5084443;28;20278;-71
2022/09/18 09:47:53;;;;;;;5.87;0.50;;;11.10;93.30;;;;;;5078567;28;20282;-72
2022/09/18 09:50:40;;;;;;;6.40;0.90;;;11.10;93.90;;;;;;5071489;28;20285;-71
2022/09/18 09:53:10;;;;;;;6.37;0.80;;;11.10;94.20;;;;;;5080319;28;20278;-72
2022/09/18 09:55:47;;;;;;;7.30;1.17;;;11.10;94.40;;;;;;5064165;28;20290;-71
2022/09/18 09:58:37;;;;;;;5.80;1.10;;;11.10;94.40;;;;;;5066972;28;20281;-72
2022/09/18 10:01:12;;;;;;;11.97;1.00;;;11.10;94.70;;;;;;5085640;28;20298;-71
2022/09/18 10:04:10;;;;;;;8.50;1.10;;;11.00;94.80;;;;;;5069494;28;20318;-71
2022/09/18 10:06:45;;;;;;;10.07;0.70;;;11.00;95.00;;;;;;5089647;28;20484;-70
2022/09/18 10:09:25;;;;;;;10.73;1.80;;;11.00;95.00;;;;;;5088649;28;20278;-71
2022/09/18 10:12:33;;;;;;;7.73;0.60;;;11.00;95.00;;;;;;5062735;28;20805;-71
2022/09/18 10:15:27;;;;;;;5.47;0.90;;;11.00;95.50;;;;;;5088808;28;20361;-71
2022/09/18 10:17:58;;;;;;;4.40;0.60;;;11.00;95.70;;;;;;5048612;28;20646;-71
2022/09/18 10:20:29;;;;;;;5.73;0.60;;;11.10;95.70;;;;;;5071017;28;20313;-71
2022/09/18 10:23:19;;;;;;;7.33;0.90;;;11.10;95.50;;;;;;5086241;28;20294;-72
2022/09/18 10:25:53;;;;;;;7.60;0.60;;;11.20;95.80;;;;;;5082237;28;20302;-72
2022/09/18 10:28:20;;;;;;;4.97;0.83;;;11.30;95.80;;;;;;5088617;28;20626;-71
2022/09/18 10:30:57;;;;;;;6.17;0.87;;;11.30;95.80;;;;;;5072208;28;20285;-71
2022/09/18 10:33:34;;;;;;;4.20;0.73;;;11.30;95.30;;;;;;5070405;28;20274;-70
2022/09/18 10:36:14;;;;;;;8.43;1.10;;;11.40;95.80;;;;;;5070369;28;20790;-72
2022/09/18 10:38:40;;;;;;;10.17;1.23;;;11.50;96.40;;;;;;5071359;28;20853;-71
2022/09/18 10:41:30;;;;;;;6.23;0.93;;;11.60;96.60;;;;;;5070283;28;20386;-71
2022/09/18 10:44:16;;;;;;;7.50;0.87;;;11.70;96.60;;;;;;5085617;28;20495;-71
2022/09/18 10:47:04;;;;;;;4.50;0.60;;;11.80;96.60;;;;;;5086034;28;20341;-71
2022/09/18 10:49:53;;;;;;;3.93;0.57;;;11.90;96.90;;;;;;5086467;28;20438;-71
2022/09/18 10:52:34;;;;;;;12.23;1.50;;;12.00;97.10;;;;;;5086753;28;20278;-71
2022/09/18 10:55:06;;;;;;;9.57;0.70;;;12.00;96.50;;;;;;5087550;28;20277;-71
2022/09/18 10:57:35;;;;;;;6.70;0.80;;;12.10;96.40;;;;;;5086250;28;20607;-71
2022/09/18 11:00:24;;;;;;;13.90;1.33;;;12.20;95.00;;;;;;5088755;28;20277;-71
2022/09/18 11:03:23;;;;;;;8.87;1.00;;;12.30;93.20;;;;;;5050692;28;20889;-71
2022/09/18 11:06:02;;;;;;;3.63;0.70;;;12.40;92.20;;;;;;5086506;28;20305;-71
2022/09/18 11:08:33;;;;;;;5.17;0.60;;;12.50;92.50;;;;;;5087315;28;20351;-71
2022/09/18 11:11:09;;;;;;;5.20;0.57;;;12.50;91.20;;;;;;5070266;28;20282;-71
2022/09/18 11:14:00;;;;;;;5.93;0.83;;;12.60;90.00;;;;;;5068750;28;20389;-71
2022/09/18 11:16:31;;;;;;;7.67;0.80;;;12.70;88.20;;;;;;5041800;28;20294;-71
2022/09/18 11:19:11;;;;;;;3.50;0.30;;;12.80;87.20;;;;;;5066318;28;20350;-71
2022/09/18 11:21:44;;;;;;;7.27;0.60;;;12.80;86.70;;;;;;5069392;28;20305;-71
2022/09/18 11:24:20;;;;;;;11.13;0.93;;;12.90;86.90;;;;;;5086191;28;20281;-71
2022/09/18 11:27:20;;;;;;;5.40;0.77;;;13.00;86.20;;;;;;5094865;28;20314;-71
2022/09/18 11:29:46;;;;;;;5.67;0.63;;;13.00;83.40;;;;;;5077117;28;20296;-71
2022/09/18 11:32:24;;;;;;;6.00;0.87;;;13.00;81.30;;;;;;5053359;28;20309;-72
2022/09/18 11:34:58;;;;;;;5.57;0.73;;;13.10;81.50;;;;;;5066343;28;20387;-71
2022/09/18 11:37:36;;;;;;;7.97;0.73;;;13.10;82.30;;;;;;5078451;28;20293;-72
2022/09/18 11:40:32;;;;;;;6.33;1.00;;;13.20;83.40;;;;;;5062592;28;20340;-71
2022/09/18 11:43:04;;;;;;;5.82;0.77;;;13.30;82.70;;;;;;5081238;28;20294;-71
2022/09/18 11:45:50;;;;;;;7.83;0.77;;;13.30;80.80;;;;;;5067390;28;20118;-71
2022/09/18 11:48:46;;;;;;;5.60;0.87;;;13.30;80.60;;;;;;5066542;28;20804;-71
2022/09/18 11:51:25;;;;;;;9.00;1.10;;;13.20;81.10;;;;;;5076322;28;20283;-72
2022/09/18 11:54:00;;;;;;;6.33;0.70;;;13.00;82.60;;;;;;5082871;28;20301;-72
2022/09/18 11:56:29;;;;;;;8.93;0.97;;;12.90;82.50;;;;;;5083050;28;20559;-71
2022/09/18 11:59:02;;;;;;;3.37;0.73;;;12.50;84.20;;;;;;5092358;28;20719;-71
2022/09/18 12:01:41;;;;;;;3.93;0.77;;;12.30;85.50;;;;;;5086194;28;20693;-71
2022/09/18 12:04:39;;;;;;;7.60;0.67;;;12.10;86.70;;;;;;5085156;28;20286;-71
2022/09/18 12:07:38;;;;;;;5.07;1.07;;;12.00;87.00;;;;;;5088717;28;20353;-71
2022/09/18 12:10:17;;;;;;;4.57;0.80;;;12.00;87.90;;;;;;5066433;28;20308;-71
2022/09/18 12:12:47;;;;;;;8.43;0.93;;;12.00;88.20;;;;;;5066470;28;20289;-71
2022/09/18 12:15:27;;;;;;;2.73;0.40;;;12.00;87.30;;;;;;5071550;28;20290;-71
2022/09/18 12:17:55;;;;;;;3.37;0.77;;;12.10;87.40;;;;;;5089011;28;20785;-71
2022/09/18 12:20:44;;;;;;;3.50;0.53;;;12.20;88.30;;;;;;5063796;28;20282;-71
2022/09/18 12:23:16;;;;;;;4.63;0.60;;;12.20;88.10;;;;;;5083760;28;20689;-71
2022/09/18 12:26:06;;;;;;;5.13;0.50;;;12.30;87.10;;;;;;5064858;28;20381;-71
2022/09/18 12:29:09;;;;;;;12.33;0.77;;;12.30;87.60;;;;;;5087128;28;20281;-71
2022/09/18 12:32:20;;;;;;;6.93;0.90;;;12.40;87.40;;;;;;5077399;28;20346;-71
2022/09/18 12:35:02;;;;;;;6.40;0.60;;;12.40;86.90;;;;;;5036088;28;20352;-72
2022/09/18 12:37:49;;;;;;;7.57;0.60;;;12.50;87.20;;;;;;5099668;28;20538;-72
2022/09/18 12:40:24;;;;;;;8.83;0.80;;;12.60;86.20;;;;;;5086512;28;20649;-72
2022/09/18 12:43:27;;;;;;;11.50;1.10;;;12.60;85.40;;;;;;5060364;28;20303;-72
2022/09/18 12:46:09;;;;;;;5.40;0.80;;;12.60;85.90;;;;;;5081714;28;20500;-72
2022/09/18 12:48:56;;;;;;;5.27;0.60;;;12.60;86.10;;;;;;5071140;28;20721;-72
2022/09/18 12:51:40;;;;;;;10.13;1.60;;;12.60;85.50;;;;;;5083965;28;20703;-72
2022/09/18 12:54:05;;;;;;;13.47;1.07;;;12.60;85.10;;;;;;5084317;28;20309;-72
2022/09/18 12:56:41;;;;;;;7.93;1.13;;;12.50;85.50;;;;;;5077358;28;20291;-71
2022/09/18 12:59:23;;;;;;;;;;;12.40;86.50;;;;;;5089274;28;20703;-71
2022/09/18 13:02:11;;;;;;;7.23;0.70;;;12.40;86.10;;;;;;5089812;28;19920;-72
2022/09/18 13:05:21;;;;;;;7.40;0.60;;;12.30;87.20;;;;;;5085281;28;20373;-71
2022/09/18 13:08:11;;;;;;;4.50;0.40;;;12.30;86.10;;;;;;5074057;28;20337;-71
2022/09/18 13:10:42;;;;;;;5.83;0.70;;;12.20;85.20;;;;;;5084127;28;20375;-71
2022/09/18 13:13:30;;;;;;;7.83;1.03;;;12.10;85.80;;;;;;5084816;28;20285;-71
2022/09/18 13:16:13;;;;;;;7.23;1.07;;;12.10;87.00;;;;;;5066780;28;20286;-71